sensor_id;sensor_type;location;lat;lon;timestamp;pressure;altitude;pressure_sealevel;temperature;humidity
76128;BME280;64873;50.102;14.434;2023-07-22T00:01:16;99036.78;;;17.04;81.71
76128;BME280;64873;50.102;14.434;2023-07-22T00:03:42;99042.69;;;16.91;81.85
76128;BME280;64873;50.102;14.434;2023-07-22T00:06:09;99038.91;;;16.92;82.36
76128;BME280;64873;50.102;14.434;2023-07-22T00:08:36;99037.50;;;16.79;83.09
76128;BME280;64873;50.102;14.434;2023-07-22T00:11:02;99033.44;;;16.82;81.95
76128;BME280;64873;50.102;14.434;2023-07-22T00:13:28;99031.78;;;16.70;82.47
76128;BME280;64873;50.102;14.434;2023-07-22T00:15:54;99039.28;;;16.68;82.55
76128;BME280;64873;50.102;14.434;2023-07-22T00:18:20;99044.88;;;16.51;81.57
76128;BME280;64873;50.102;14.434;2023-07-22T00:20:46;99044.59;;;16.48;79.85
76128;BME280;64873;50.102;14.434;2023-07-22T00:23:11;99052.75;;;16.63;79.18
76128;BME280;64873;50.102;14.434;2023-07-22T00:25:37;99057.72;;;16.76;77.51
76128;BME280;64873;50.102;14.434;2023-07-22T00:28:02;99057.66;;;16.66;78.03
76128;BME280;64873;50.102;14.434;2023-07-22T00:30:29;99054.66;;;16.63;79.25
76128;BME280;64873;50.102;14.434;2023-07-22T00:32:54;99056.97;;;16.44;78.88
76128;BME280;64873;50.102;14.434;2023-07-22T00:35:20;99066.69;;;16.45;78.97
76128;BME280;64873;50.102;14.434;2023-07-22T00:37:46;99057.16;;;16.32;78.33
76128;BME280;64873;50.102;14.434;2023-07-22T00:40:12;99050.50;;;16.45;77.15
76128;BME280;64873;50.102;14.434;2023-07-22T00:42:38;99054.28;;;16.44;77.54
76128;BME280;64873;50.102;14.434;2023-07-22T00:45:04;99073.03;;;16.29;77.83
76128;BME280;64873;50.102;14.434;2023-07-22T00:47:31;99054.66;;;16.20;78.16
76128;BME280;64873;50.102;14.434;2023-07-22T00:49:59;99057.84;;;16.17;78.76
76128;BME280;64873;50.102;14.434;2023-07-22T00:52:25;99064.41;;;16.26;77.92
76128;BME280;64873;50.102;14.434;2023-07-22T00:54:50;99055.13;;;16.12;78.32
76128;BME280;64873;50.102;14.434;2023-07-22T00:57:16;99059.75;;;16.17;78.02
76128;BME280;64873;50.102;14.434;2023-07-22T00:59:41;99067.50;;;16.08;78.26
76128;BME280;64873;50.102;14.434;2023-07-22T01:02:07;99063.06;;;15.92;79.10
76128;BME280;64873;50.102;14.434;2023-07-22T01:04:33;99066.50;;;15.87;79.10
76128;BME280;64873;50.102;14.434;2023-07-22T01:07:00;99068.56;;;15.75;79.60
76128;BME280;64873;50.102;14.434;2023-07-22T01:09:34;99065.78;;;15.97;78.93
76128;BME280;64873;50.102;14.434;2023-07-22T01:12:00;99066.81;;;15.91;78.35
76128;BME280;64873;50.102;14.434;2023-07-22T01:14:26;99062.41;;;15.80;78.63
76128;BME280;64873;50.102;14.434;2023-07-22T01:16:51;99074.53;;;15.82;78.60
76128;BME280;64873;50.102;14.434;2023-07-22T01:19:17;99074.16;;;15.68;78.83
76128;BME280;64873;50.102;14.434;2023-07-22T01:21:44;99068.28;;;15.71;78.77
76128;BME280;64873;50.102;14.434;2023-07-22T01:24:12;99068.88;;;15.79;78.53
76128;BME280;64873;50.102;14.434;2023-07-22T01:26:37;99067.03;;;15.84;77.56
76128;BME280;64873;50.102;14.434;2023-07-22T01:29:06;99065.06;;;15.75;77.87
76128;BME280;64873;50.102;14.434;2023-07-22T01:31:34;99066.72;;;15.81;77.15
76128;BME280;64873;50.102;14.434;2023-07-22T01:34:01;99069.56;;;15.69;77.52
76128;BME280;64873;50.102;14.434;2023-07-22T01:36:26;99072.53;;;15.67;77.83
76128;BME280;64873;50.102;14.434;2023-07-22T01:38:51;99071.78;;;15.77;76.86
76128;BME280;64873;50.102;14.434;2023-07-22T01:41:17;99069.22;;;15.60;77.29
76128;BME280;64873;50.102;14.434;2023-07-22T01:43:42;99070.47;;;15.53;78.23
76128;BME280;64873;50.102;14.434;2023-07-22T01:46:08;99072.72;;;15.61;78.58
76128;BME280;64873;50.102;14.434;2023-07-22T01:48:34;99071.47;;;15.46;78.02
76128;BME280;64873;50.102;14.434;2023-07-22T01:50:59;99061.06;;;15.55;76.85
76128;BME280;64873;50.102;14.434;2023-07-22T01:53:25;99074.69;;;15.65;75.84
76128;BME280;64873;50.102;14.434;2023-07-22T01:55:50;99072.09;;;15.54;77.28
76128;BME280;64873;50.102;14.434;2023-07-22T01:58:16;99076.25;;;15.39;77.61
76128;BME280;64873;50.102;14.434;2023-07-22T02:00:41;99083.44;;;15.56;77.80
76128;BME280;64873;50.102;14.434;2023-07-22T02:03:06;99084.28;;;15.61;78.40
76128;BME280;64873;50.102;14.434;2023-07-22T02:05:32;99081.50;;;15.51;78.04
76128;BME280;64873;50.102;14.434;2023-07-22T02:07:57;99087.47;;;15.58;78.02
76128;BME280;64873;50.102;14.434;2023-07-22T02:10:22;99087.94;;;15.50;78.33
76128;BME280;64873;50.102;14.434;2023-07-22T02:12:48;99081.31;;;15.36;78.79
76128;BME280;64873;50.102;14.434;2023-07-22T02:15:13;99088.34;;;15.37;78.95
76128;BME280;64873;50.102;14.434;2023-07-22T02:17:39;99078.06;;;15.34;78.85
76128;BME280;64873;50.102;14.434;2023-07-22T02:20:05;99082.66;;;15.33;78.31
76128;BME280;64873;50.102;14.434;2023-07-22T02:22:31;99095.56;;;15.31;78.41
76128;BME280;64873;50.102;14.434;2023-07-22T02:24:56;99103.25;;;15.23;78.90
76128;BME280;64873;50.102;14.434;2023-07-22T02:27:21;99098.00;;;15.33;77.71
76128;BME280;64873;50.102;14.434;2023-07-22T02:29:47;99092.59;;;15.33;78.25
76128;BME280;64873;50.102;14.434;2023-07-22T02:32:12;99099.63;;;15.34;77.90
76128;BME280;64873;50.102;14.434;2023-07-22T02:34:37;99094.34;;;15.22;78.35
76128;BME280;64873;50.102;14.434;2023-07-22T02:37:04;99095.44;;;15.21;78.36
76128;BME280;64873;50.102;14.434;2023-07-22T02:39:29;99102.84;;;15.36;77.39
76128;BME280;64873;50.102;14.434;2023-07-22T02:41:55;99113.53;;;15.26;77.93
76128;BME280;64873;50.102;14.434;2023-07-22T02:44:20;99115.91;;;15.22;77.94
76128;BME280;64873;50.102;14.434;2023-07-22T02:46:46;99114.00;;;15.23;77.44
76128;BME280;64873;50.102;14.434;2023-07-22T02:49:11;99113.94;;;15.17;78.16
76128;BME280;64873;50.102;14.434;2023-07-22T02:51:36;99110.50;;;15.22;77.83
76128;BME280;64873;50.102;14.434;2023-07-22T02:54:02;99119.00;;;15.36;77.37
76128;BME280;64873;50.102;14.434;2023-07-22T02:56:29;99118.41;;;15.29;76.61
76128;BME280;64873;50.102;14.434;2023-07-22T02:58:54;99125.38;;;15.25;76.65
76128;BME280;64873;50.102;14.434;2023-07-22T03:01:19;99129.16;;;15.29;76.83
76128;BME280;64873;50.102;14.434;2023-07-22T03:03:45;99136.69;;;15.27;77.07
76128;BME280;64873;50.102;14.434;2023-07-22T03:06:10;99142.88;;;15.05;77.33
76128;BME280;64873;50.102;14.434;2023-07-22T03:08:36;99132.97;;;15.11;77.37
76128;BME280;64873;50.102;14.434;2023-07-22T03:11:02;99139.19;;;15.11;77.33
76128;BME280;64873;50.102;14.434;2023-07-22T03:13:29;99135.78;;;14.99;77.01
76128;BME280;64873;50.102;14.434;2023-07-22T03:15:55;99130.63;;;15.14;76.43
76128;BME280;64873;50.102;14.434;2023-07-22T03:18:21;99134.06;;;15.10;76.74
76128;BME280;64873;50.102;14.434;2023-07-22T03:20:46;99133.25;;;15.09;76.88
76128;BME280;64873;50.102;14.434;2023-07-22T03:23:12;99140.06;;;14.95;77.81
76128;BME280;64873;50.102;14.434;2023-07-22T03:25:37;99151.94;;;14.99;77.58
76128;BME280;64873;50.102;14.434;2023-07-22T03:28:04;99151.63;;;14.96;77.22
76128;BME280;64873;50.102;14.434;2023-07-22T03:30:30;99152.44;;;14.96;77.48
76128;BME280;64873;50.102;14.434;2023-07-22T03:32:56;99159.94;;;14.94;77.37
76128;BME280;64873;50.102;14.434;2023-07-22T03:35:21;99154.72;;;14.87;77.30
76128;BME280;64873;50.102;14.434;2023-07-22T03:37:46;99154.56;;;14.94;76.97
76128;BME280;64873;50.102;14.434;2023-07-22T03:40:12;99166.41;;;14.76;77.67
76128;BME280;64873;50.102;14.434;2023-07-22T03:42:53;99156.81;;;14.63;78.45
76128;BME280;64873;50.102;14.434;2023-07-22T03:45:20;99167.69;;;14.90;77.35
76128;BME280;64873;50.102;14.434;2023-07-22T03:47:46;99156.50;;;14.99;77.11
76128;BME280;64873;50.102;14.434;2023-07-22T03:50:13;99161.84;;;14.77;77.69
76128;BME280;64873;50.102;14.434;2023-07-22T03:52:38;99162.41;;;14.96;76.52
76128;BME280;64873;50.102;14.434;2023-07-22T03:55:04;99162.28;;;15.07;75.87
76128;BME280;64873;50.102;14.434;2023-07-22T03:57:34;99158.22;;;15.27;74.63
76128;BME280;64873;50.102;14.434;2023-07-22T03:59:59;99165.19;;;15.44;73.93
76128;BME280;64873;50.102;14.434;2023-07-22T04:02:25;99167.59;;;15.46;73.06
76128;BME280;64873;50.102;14.434;2023-07-22T04:04:52;99167.75;;;15.56;73.08
76128;BME280;64873;50.102;14.434;2023-07-22T04:07:18;99172.97;;;15.63;72.32
76128;BME280;64873;50.102;14.434;2023-07-22T04:09:44;99173.69;;;15.58;72.52
76128;BME280;64873;50.102;14.434;2023-07-22T04:12:13;99173.91;;;15.73;71.75
76128;BME280;64873;50.102;14.434;2023-07-22T04:14:38;99173.38;;;15.77;71.84
76128;BME280;64873;50.102;14.434;2023-07-22T04:17:04;99185.84;;;15.83;71.55
76128;BME280;64873;50.102;14.434;2023-07-22T04:19:30;99188.03;;;15.86;71.25
76128;BME280;64873;50.102;14.434;2023-07-22T04:21:55;99182.03;;;15.79;72.05
76128;BME280;64873;50.102;14.434;2023-07-22T04:24:21;99180.44;;;15.83;71.33
76128;BME280;64873;50.102;14.434;2023-07-22T04:26:47;99175.47;;;15.96;70.82
76128;BME280;64873;50.102;14.434;2023-07-22T04:29:12;99184.38;;;15.97;70.30
76128;BME280;64873;50.102;14.434;2023-07-22T04:31:38;99188.22;;;16.06;69.99
76128;BME280;64873;50.102;14.434;2023-07-22T04:34:04;99191.56;;;16.13;70.44
76128;BME280;64873;50.102;14.434;2023-07-22T04:36:30;99200.53;;;16.24;69.84
76128;BME280;64873;50.102;14.434;2023-07-22T04:38:56;99191.28;;;16.42;68.82
76128;BME280;64873;50.102;14.434;2023-07-22T04:41:21;99195.81;;;16.36;69.58
76128;BME280;64873;50.102;14.434;2023-07-22T04:43:47;99199.53;;;16.30;69.91
76128;BME280;64873;50.102;14.434;2023-07-22T04:46:13;99198.84;;;16.18;70.76
76128;BME280;64873;50.102;14.434;2023-07-22T04:48:38;99205.13;;;16.23;70.64
76128;BME280;64873;50.102;14.434;2023-07-22T04:51:03;99211.28;;;15.92;71.22
76128;BME280;64873;50.102;14.434;2023-07-22T04:53:29;99218.22;;;15.88;71.77
76128;BME280;64873;50.102;14.434;2023-07-22T04:55:54;99222.00;;;15.87;71.87
76128;BME280;64873;50.102;14.434;2023-07-22T04:58:20;99226.56;;;15.86;72.01
76128;BME280;64873;50.102;14.434;2023-07-22T05:00:46;99225.69;;;15.81;71.98
76128;BME280;64873;50.102;14.434;2023-07-22T05:03:11;99230.75;;;15.99;71.73
76128;BME280;64873;50.102;14.434;2023-07-22T05:05:37;99235.88;;;16.00;71.17
76128;BME280;64873;50.102;14.434;2023-07-22T05:08:02;99224.00;;;15.96;71.08
76128;BME280;64873;50.102;14.434;2023-07-22T05:10:28;99223.59;;;16.10;70.09
76128;BME280;64873;50.102;14.434;2023-07-22T05:12:54;99231.59;;;16.26;69.69
76128;BME280;64873;50.102;14.434;2023-07-22T05:15:20;99236.00;;;16.38;69.85
76128;BME280;64873;50.102;14.434;2023-07-22T05:17:45;99222.41;;;16.55;69.23
76128;BME280;64873;50.102;14.434;2023-07-22T05:20:12;99230.88;;;16.68;68.37
76128;BME280;64873;50.102;14.434;2023-07-22T05:22:40;99227.75;;;16.82;67.81
76128;BME280;64873;50.102;14.434;2023-07-22T05:25:07;99234.25;;;16.81;67.90
76128;BME280;64873;50.102;14.434;2023-07-22T05:27:33;99232.22;;;16.98;67.36
76128;BME280;64873;50.102;14.434;2023-07-22T05:29:58;99240.75;;;16.85;67.36
76128;BME280;64873;50.102;14.434;2023-07-22T05:32:23;99240.47;;;17.23;66.76
76128;BME280;64873;50.102;14.434;2023-07-22T05:34:49;99235.63;;;17.25;66.65
76128;BME280;64873;50.102;14.434;2023-07-22T05:37:14;99236.22;;;17.32;66.68
76128;BME280;64873;50.102;14.434;2023-07-22T05:39:40;99244.66;;;17.46;65.88
76128;BME280;64873;50.102;14.434;2023-07-22T05:42:05;99243.81;;;17.36;66.74
76128;BME280;64873;50.102;14.434;2023-07-22T05:44:31;99249.28;;;17.56;66.37
76128;BME280;64873;50.102;14.434;2023-07-22T05:46:56;99248.00;;;17.69;65.90
76128;BME280;64873;50.102;14.434;2023-07-22T05:49:22;99243.78;;;17.83;65.65
76128;BME280;64873;50.102;14.434;2023-07-22T05:51:47;99253.72;;;17.72;65.62
76128;BME280;64873;50.102;14.434;2023-07-22T05:54:12;99242.47;;;17.96;65.12
76128;BME280;64873;50.102;14.434;2023-07-22T05:56:38;99247.31;;;17.89;64.89
76128;BME280;64873;50.102;14.434;2023-07-22T05:59:03;99251.06;;;17.82;65.44
76128;BME280;64873;50.102;14.434;2023-07-22T06:01:29;99258.44;;;18.02;65.13
76128;BME280;64873;50.102;14.434;2023-07-22T06:03:55;99255.19;;;18.10;64.40
76128;BME280;64873;50.102;14.434;2023-07-22T06:06:20;99257.34;;;17.98;64.93
76128;BME280;64873;50.102;14.434;2023-07-22T06:08:45;99254.84;;;17.81;65.30
76128;BME280;64873;50.102;14.434;2023-07-22T06:11:11;99254.16;;;17.54;66.10
76128;BME280;64873;50.102;14.434;2023-07-22T06:13:36;99261.22;;;17.60;65.70
76128;BME280;64873;50.102;14.434;2023-07-22T06:16:02;99249.25;;;17.46;66.43
76128;BME280;64873;50.102;14.434;2023-07-22T06:18:28;99254.06;;;17.39;66.60
76128;BME280;64873;50.102;14.434;2023-07-22T06:20:53;99260.59;;;17.43;66.37
76128;BME280;64873;50.102;14.434;2023-07-22T06:23:19;99257.38;;;17.51;66.59
76128;BME280;64873;50.102;14.434;2023-07-22T06:25:44;99262.03;;;17.61;65.93
76128;BME280;64873;50.102;14.434;2023-07-22T06:28:09;99266.28;;;17.51;66.56
76128;BME280;64873;50.102;14.434;2023-07-22T06:30:35;99265.50;;;17.56;66.01
76128;BME280;64873;50.102;14.434;2023-07-22T06:33:00;99259.19;;;17.82;65.08
76128;BME280;64873;50.102;14.434;2023-07-22T06:35:26;99261.88;;;17.77;65.25
76128;BME280;64873;50.102;14.434;2023-07-22T06:37:51;99265.72;;;17.97;64.70
76128;BME280;64873;50.102;14.434;2023-07-22T06:40:17;99273.09;;;18.22;63.89
76128;BME280;64873;50.102;14.434;2023-07-22T06:42:43;99275.03;;;18.47;62.97
76128;BME280;64873;50.102;14.434;2023-07-22T06:45:08;99267.47;;;18.64;62.58
76128;BME280;64873;50.102;14.434;2023-07-22T06:47:34;99279.28;;;18.07;63.35
76128;BME280;64873;50.102;14.434;2023-07-22T06:50:00;99276.09;;;18.30;62.48
76128;BME280;64873;50.102;14.434;2023-07-22T06:52:25;99269.03;;;18.19;62.61
76128;BME280;64873;50.102;14.434;2023-07-22T06:54:50;99277.81;;;18.72;61.24
76128;BME280;64873;50.102;14.434;2023-07-22T06:57:16;99281.03;;;18.69;61.24
76128;BME280;64873;50.102;14.434;2023-07-22T06:59:41;99281.28;;;18.47;60.70
76128;BME280;64873;50.102;14.434;2023-07-22T07:02:07;99289.56;;;18.15;61.65
76128;BME280;64873;50.102;14.434;2023-07-22T07:04:33;99288.75;;;18.15;61.80
76128;BME280;64873;50.102;14.434;2023-07-22T07:06:59;99289.56;;;18.15;63.43
76128;BME280;64873;50.102;14.434;2023-07-22T07:09:24;99285.53;;;18.23;62.03
76128;BME280;64873;50.102;14.434;2023-07-22T07:11:50;99286.56;;;18.11;61.50
76128;BME280;64873;50.102;14.434;2023-07-22T07:14:15;99284.22;;;18.46;60.77
76128;BME280;64873;50.102;14.434;2023-07-22T07:16:41;99291.28;;;18.57;58.79
76128;BME280;64873;50.102;14.434;2023-07-22T07:19:06;99296.69;;;18.57;60.60
76128;BME280;64873;50.102;14.434;2023-07-22T07:21:32;99291.03;;;18.53;60.23
76128;BME280;64873;50.102;14.434;2023-07-22T07:23:57;99292.97;;;18.78;58.15
76128;BME280;64873;50.102;14.434;2023-07-22T07:26:23;99291.34;;;18.92;56.51
76128;BME280;64873;50.102;14.434;2023-07-22T07:28:49;99295.38;;;19.31;55.28
76128;BME280;64873;50.102;14.434;2023-07-22T07:31:18;99301.63;;;19.11;56.44
76128;BME280;64873;50.102;14.434;2023-07-22T07:33:43;99301.09;;;18.78;58.14
76128;BME280;64873;50.102;14.434;2023-07-22T07:36:09;99300.56;;;18.91;57.81
76128;BME280;64873;50.102;14.434;2023-07-22T07:38:34;99304.34;;;19.16;57.77
76128;BME280;64873;50.102;14.434;2023-07-22T07:41:05;99301.84;;;19.45;56.64
76128;BME280;64873;50.102;14.434;2023-07-22T07:43:34;99306.97;;;19.52;56.41
76128;BME280;64873;50.102;14.434;2023-07-22T07:46:20;99303.25;;;18.81;57.86
76128;BME280;64873;50.102;14.434;2023-07-22T07:48:51;99302.44;;;19.27;58.16
76128;BME280;64873;50.102;14.434;2023-07-22T07:51:18;99301.38;;;19.17;56.60
76128;BME280;64873;50.102;14.434;2023-07-22T07:53:45;99306.75;;;19.28;56.81
76128;BME280;64873;50.102;14.434;2023-07-22T07:56:12;99302.66;;;19.56;56.15
76128;BME280;64873;50.102;14.434;2023-07-22T07:58:38;99313.50;;;19.45;53.76
76128;BME280;64873;50.102;14.434;2023-07-22T08:01:04;99304.28;;;19.52;53.06
76128;BME280;64873;50.102;14.434;2023-07-22T08:03:30;99312.47;;;19.16;54.47
76128;BME280;64873;50.102;14.434;2023-07-22T08:05:55;99311.94;;;19.19;54.71
76128;BME280;64873;50.102;14.434;2023-07-22T08:08:21;99302.19;;;19.18;53.33
76128;BME280;64873;50.102;14.434;2023-07-22T08:10:47;99308.09;;;19.45;53.14
76128;BME280;64873;50.102;14.434;2023-07-22T08:13:13;99307.31;;;19.35;53.08
76128;BME280;64873;50.102;14.434;2023-07-22T08:15:39;99302.94;;;19.39;53.20
76128;BME280;64873;50.102;14.434;2023-07-22T08:18:07;99307.56;;;19.38;53.88
76128;BME280;64873;50.102;14.434;2023-07-22T08:20:32;99298.38;;;19.19;54.07
76128;BME280;64873;50.102;14.434;2023-07-22T08:22:58;99298.09;;;19.05;54.68
76128;BME280;64873;50.102;14.434;2023-07-22T08:25:23;99303.81;;;19.19;53.78
76128;BME280;64873;50.102;14.434;2023-07-22T08:27:48;99299.41;;;19.64;53.29
76128;BME280;64873;50.102;14.434;2023-07-22T08:30:14;99283.03;;;19.94;51.33
76128;BME280;64873;50.102;14.434;2023-07-22T08:32:39;99284.91;;;20.54;50.72
76128;BME280;64873;50.102;14.434;2023-07-22T08:35:05;99278.53;;;20.29;50.59
76128;BME280;64873;50.102;14.434;2023-07-22T08:37:32;99285.56;;;20.30;50.36
76128;BME280;64873;50.102;14.434;2023-07-22T08:39:57;99288.41;;;20.05;51.54
76128;BME280;64873;50.102;14.434;2023-07-22T08:42:23;99286.00;;;19.93;49.92
76128;BME280;64873;50.102;14.434;2023-07-22T08:44:56;99283.34;;;20.37;48.02
76128;BME280;64873;50.102;14.434;2023-07-22T08:47:24;99291.41;;;20.03;47.18
76128;BME280;64873;50.102;14.434;2023-07-22T08:49:57;99286.53;;;20.00;46.61
76128;BME280;64873;50.102;14.434;2023-07-22T08:52:23;99299.41;;;19.64;46.73
76128;BME280;64873;50.102;14.434;2023-07-22T08:54:49;99294.53;;;19.61;47.16
76128;BME280;64873;50.102;14.434;2023-07-22T08:57:15;99295.53;;;19.85;47.24
76128;BME280;64873;50.102;14.434;2023-07-22T08:59:43;99279.19;;;20.06;46.83
76128;BME280;64873;50.102;14.434;2023-07-22T09:02:12;99290.44;;;20.28;46.17
76128;BME280;64873;50.102;14.434;2023-07-22T09:04:39;99293.47;;;20.21;46.06
76128;BME280;64873;50.102;14.434;2023-07-22T09:07:06;99286.72;;;20.14;45.93
76128;BME280;64873;50.102;14.434;2023-07-22T09:09:33;99295.94;;;20.23;45.63
76128;BME280;64873;50.102;14.434;2023-07-22T09:12:00;99285.66;;;20.64;45.72
76128;BME280;64873;50.102;14.434;2023-07-22T09:14:25;99285.16;;;20.57;44.80
76128;BME280;64873;50.102;14.434;2023-07-22T09:16:51;99290.03;;;20.94;44.72
76128;BME280;64873;50.102;14.434;2023-07-22T09:19:17;99286.06;;;21.11;44.07
76128;BME280;64873;50.102;14.434;2023-07-22T09:21:42;99298.97;;;21.00;44.36
76128;BME280;64873;50.102;14.434;2023-07-22T09:24:28;99307.06;;;21.05;44.87
76128;BME280;64873;50.102;14.434;2023-07-22T09:26:54;99294.38;;;21.29;44.50
76128;BME280;64873;50.102;14.434;2023-07-22T09:29:38;99285.97;;;21.21;44.65
76128;BME280;64873;50.102;14.434;2023-07-22T09:32:07;99289.41;;;21.37;44.21
76128;BME280;64873;50.102;14.434;2023-07-22T09:34:33;99291.78;;;21.43;43.75
76128;BME280;64873;50.102;14.434;2023-07-22T09:36:59;99289.00;;;21.96;43.53
76128;BME280;64873;50.102;14.434;2023-07-22T09:39:29;99279.44;;;22.23;42.38
76128;BME280;64873;50.102;14.434;2023-07-22T09:41:55;99294.75;;;22.19;42.34
76128;BME280;64873;50.102;14.434;2023-07-22T09:44:22;99292.28;;;21.45;44.21
76128;BME280;64873;50.102;14.434;2023-07-22T09:46:48;99288.72;;;21.74;44.46
76128;BME280;64873;50.102;14.434;2023-07-22T09:49:16;99285.34;;;20.71;45.75
76128;BME280;64873;50.102;14.434;2023-07-22T09:51:42;99297.00;;;20.71;45.28
76128;BME280;64873;50.102;14.434;2023-07-22T09:54:07;99291.69;;;20.90;44.95
76128;BME280;64873;50.102;14.434;2023-07-22T09:56:43;99277.78;;;21.26;44.64
76128;BME280;64873;50.102;14.434;2023-07-22T09:59:10;99281.91;;;21.23;45.14
76128;BME280;64873;50.102;14.434;2023-07-22T10:01:38;99285.34;;;21.34;45.06
76128;BME280;64873;50.102;14.434;2023-07-22T10:04:05;99290.63;;;21.49;45.12
76128;BME280;64873;50.102;14.434;2023-07-22T10:06:32;99285.47;;;21.19;44.07
76128;BME280;64873;50.102;14.434;2023-07-22T10:09:02;99295.19;;;21.25;45.09
76128;BME280;64873;50.102;14.434;2023-07-22T10:11:28;99289.25;;;21.76;43.94
76128;BME280;64873;50.102;14.434;2023-07-22T10:13:55;99283.56;;;21.96;43.52
76128;BME280;64873;50.102;14.434;2023-07-22T10:16:20;99275.50;;;21.86;44.07
76128;BME280;64873;50.102;14.434;2023-07-22T10:18:48;99272.59;;;21.59;43.91
76128;BME280;64873;50.102;14.434;2023-07-22T10:21:14;99283.34;;;21.69;42.79
76128;BME280;64873;50.102;14.434;2023-07-22T10:23:40;99275.03;;;21.60;43.38
76128;BME280;64873;50.102;14.434;2023-07-22T10:26:06;99279.81;;;21.68;43.51
76128;BME280;64873;50.102;14.434;2023-07-22T10:28:32;99269.28;;;21.86;42.85
76128;BME280;64873;50.102;14.434;2023-07-22T10:30:59;99273.63;;;22.11;43.44
76128;BME280;64873;50.102;14.434;2023-07-22T10:33:25;99264.28;;;21.69;42.58
76128;BME280;64873;50.102;14.434;2023-07-22T10:36:08;99268.41;;;21.42;42.90
76128;BME280;64873;50.102;14.434;2023-07-22T10:38:35;99265.78;;;21.32;42.57
76128;BME280;64873;50.102;14.434;2023-07-22T10:41:01;99267.09;;;21.64;42.38
76128;BME280;64873;50.102;14.434;2023-07-22T10:45:57;99258.47;;;22.42;40.91
76128;BME280;64873;50.102;14.434;2023-07-22T10:48:26;99256.59;;;22.94;40.35
76128;BME280;64873;50.102;14.434;2023-07-22T10:51:00;99262.44;;;22.87;40.77
76128;BME280;64873;50.102;14.434;2023-07-22T10:53:30;99253.38;;;22.54;41.74
76128;BME280;64873;50.102;14.434;2023-07-22T11:09:33;99252.41;;;22.45;40.90
76128;BME280;64873;50.102;14.434;2023-07-22T11:12:03;99265.56;;;22.00;41.41
76128;BME280;64873;50.102;14.434;2023-07-22T11:17:00;99258.22;;;21.77;41.52
76128;BME280;64873;50.102;14.434;2023-07-22T11:19:26;99259.84;;;21.78;41.71
76128;BME280;64873;50.102;14.434;2023-07-22T11:21:53;99253.81;;;21.81;41.46
76128;BME280;64873;50.102;14.434;2023-07-22T11:24:20;99262.19;;;21.66;41.25
76128;BME280;64873;50.102;14.434;2023-07-22T11:26:47;99256.03;;;21.55;41.51
76128;BME280;64873;50.102;14.434;2023-07-22T11:29:13;99259.97;;;21.68;41.31
76128;BME280;64873;50.102;14.434;2023-07-22T11:31:41;99249.88;;;21.92;40.37
76128;BME280;64873;50.102;14.434;2023-07-22T11:34:14;99258.41;;;22.04;40.71
76128;BME280;64873;50.102;14.434;2023-07-22T11:36:40;99252.88;;;21.91;39.57
76128;BME280;64873;50.102;14.434;2023-07-22T11:39:11;99244.66;;;21.96;38.79
76128;BME280;64873;50.102;14.434;2023-07-22T11:41:38;99245.22;;;21.93;38.61
76128;BME280;64873;50.102;14.434;2023-07-22T11:44:04;99240.81;;;22.21;37.78
76128;BME280;64873;50.102;14.434;2023-07-22T11:47:00;99236.91;;;22.46;37.60
76128;BME280;64873;50.102;14.434;2023-07-22T11:49:47;99239.53;;;22.51;37.65
76128;BME280;64873;50.102;14.434;2023-07-22T11:52:17;99232.00;;;22.61;36.55
76128;BME280;64873;50.102;14.434;2023-07-22T11:54:44;99231.69;;;23.14;36.03
76128;BME280;64873;50.102;14.434;2023-07-22T11:57:14;99231.50;;;23.25;35.50
76128;BME280;64873;50.102;14.434;2023-07-22T11:59:44;99225.81;;;23.07;36.02
76128;BME280;64873;50.102;14.434;2023-07-22T12:02:26;99225.06;;;23.48;35.41
76128;BME280;64873;50.102;14.434;2023-07-22T12:05:05;99227.06;;;23.42;36.49
76128;BME280;64873;50.102;14.434;2023-07-22T12:07:37;99223.91;;;23.22;35.54
76128;BME280;64873;50.102;14.434;2023-07-22T12:10:06;99222.91;;;23.18;35.28
76128;BME280;64873;50.102;14.434;2023-07-22T12:12:35;99219.34;;;23.03;34.58
76128;BME280;64873;50.102;14.434;2023-07-22T12:15:09;99226.66;;;23.49;34.38
76128;BME280;64873;50.102;14.434;2023-07-22T12:20:11;99222.19;;;23.12;34.78
76128;BME280;64873;50.102;14.434;2023-07-22T12:22:36;99230.47;;;23.07;34.89
76128;BME280;64873;50.102;14.434;2023-07-22T12:25:02;99227.63;;;22.79;34.94
76128;BME280;64873;50.102;14.434;2023-07-22T12:27:29;99232.56;;;23.10;34.36
76128;BME280;64873;50.102;14.434;2023-07-22T12:29:54;99224.72;;;22.76;34.34
76128;BME280;64873;50.102;14.434;2023-07-22T12:32:19;99228.31;;;22.71;34.61
76128;BME280;64873;50.102;14.434;2023-07-22T12:34:45;99226.38;;;22.39;34.23
76128;BME280;64873;50.102;14.434;2023-07-22T12:37:10;99225.38;;;22.35;34.13
76128;BME280;64873;50.102;14.434;2023-07-22T12:39:35;99213.63;;;22.53;34.02
76128;BME280;64873;50.102;14.434;2023-07-22T12:42:01;99214.47;;;22.35;34.06
76128;BME280;64873;50.102;14.434;2023-07-22T12:44:26;99210.25;;;22.43;34.64
76128;BME280;64873;50.102;14.434;2023-07-22T12:46:52;99219.59;;;22.55;34.82
76128;BME280;64873;50.102;14.434;2023-07-22T12:49:18;99224.88;;;22.66;35.00
76128;BME280;64873;50.102;14.434;2023-07-22T12:51:44;99215.00;;;22.70;34.96
76128;BME280;64873;50.102;14.434;2023-07-22T12:54:09;99211.94;;;22.57;35.05
76128;BME280;64873;50.102;14.434;2023-07-22T12:56:35;99211.66;;;22.92;35.00
76128;BME280;64873;50.102;14.434;2023-07-22T12:59:00;99206.81;;;23.02;34.18
76128;BME280;64873;50.102;14.434;2023-07-22T13:01:25;99194.13;;;23.25;33.86
76128;BME280;64873;50.102;14.434;2023-07-22T13:03:51;99195.25;;;23.10;33.06
76128;BME280;64873;50.102;14.434;2023-07-22T13:06:16;99196.13;;;23.06;33.71
76128;BME280;64873;50.102;14.434;2023-07-22T13:08:41;99198.56;;;23.07;33.16